Time;durP1;ratioP1;P1;durP2;ratioP2;P2;SDS_P1;SDS_P2;PMS_P1;PMS_P2;Temp;Humidity;BMP_temperature;BMP_pressure;BME280_temperature;BME280_humidity;BME280_pressure;Samples;Min_cycle;Max_cycle;Signal;HPM_P1;HPM_P2
2022/08/12 00:48:41;;;;;;;14.50;7.20;;;;;;;13.16;73.36;99193.59;433750;1268;108552;-40
2022/08/12 00:58:51;;;;;;;20.30;8.20;;;;;;;13.05;73.62;99194.81;433756;1268;96188;-40
2022/08/12 01:29:30;;;;;;;12.60;8.10;;;;;;;13.06;73.88;99192.19;433657;1268;96601;-41
2022/08/12 01:50:14;;;;;;;14.80;7.00;;;;;;;12.66;73.88;99183.98;433750;1266;107741;-41
2022/08/12 02:00:21;;;;;;;26.50;8.70;;;;;;;12.57;74.22;99184.91;434098;1268;96067;-40
2022/08/12 02:21:25;;;;;;;10.10;7.00;;;;;;;12.63;74.39;99168.38;433860;1267;95822;-40
2022/08/12 02:31:33;;;;;;;17.60;6.90;;;;;;;12.53;74.43;99162.34;433873;1267;108693;-40
2022/08/12 02:41:46;;;;;;;9.70;6.60;;;;;;;12.53;74.93;99165.92;433710;1268;108891;-40
2022/08/12 03:02:03;;;;;;;14.80;9.60;;;;;;;12.46;74.78;99154.65;434041;1268;108997;-41
2022/08/12 03:12:12;;;;;;;19.10;7.40;;;;;;;12.30;74.78;99161.42;434012;1267;108828;-41
2022/08/12 03:22:30;;;;;;;18.00;8.10;;;;;;;12.28;75.00;99164.80;433680;1268;97881;-41
2022/08/12 03:32:40;;;;;;;12.80;7.10;;;;;;;12.34;75.19;99163.17;433798;1268;108502;-42
2022/08/12 04:03:52;;;;;;;8.60;7.50;;;;;;;12.66;75.28;99149.19;433244;1267;108844;-42
2022/08/12 04:14:05;;;;;;;11.40;7.30;;;;;;;12.79;75.25;99158.71;433605;1268;97893;-42
2022/08/12 04:24:13;;;;;;;13.30;8.60;;;;;;;12.90;75.37;99163.52;433543;1268;108782;-42
2022/08/12 04:34:22;;;;;;;16.40;9.30;;;;;;;13.23;75.43;99162.86;433562;1268;108886;-42
2022/08/12 04:44:28;;;;;;;10.90;8.80;;;;;;;13.61;75.19;99159.09;433854;1267;97221;-40
2022/08/12 04:54:36;;;;;;;14.10;9.60;;;;;;;14.93;75.56;99165.88;433852;1268;108724;-41
2022/08/12 05:04:46;;;;;;;20.00;11.50;;;;;;;16.25;74.56;99159.84;433970;1268;97924;-41
2022/08/12 05:14:53;;;;;;;17.90;9.30;;;;;;;17.65;73.73;99165.02;433650;1268;98579;-41
2022/08/12 05:25:01;;;;;;;10.80;8.30;;;;;;;18.85;73.20;99172.34;433827;1268;111040;-41
2022/08/12 05:35:06;;;;;;;10.10;8.30;;;;;;;20.03;72.34;99167.99;433777;1268;108932;-41
2022/08/12 05:45:14;;;;;;;13.10;10.20;;;;;;;21.08;71.35;99155.26;433745;1268;98131;-41
2022/08/12 05:55:21;;;;;;;17.30;13.40;;;;;;;21.28;69.70;99160.21;433914;1268;97932;-41
2022/08/12 06:05:36;;;;;;;12.80;10.50;;;;;;;21.59;68.89;99163.40;433756;1268;111725;-42
2022/08/12 06:15:41;;;;;;;15.10;9.10;;;;;;;21.34;68.12;99166.06;433867;1268;108568;-42
2022/08/12 06:25:48;;;;;;;10.90;7.20;;;;;;;21.59;67.52;99173.09;433660;1268;98595;-41
2022/08/12 06:35:56;;;;;;;10.40;7.00;;;;;;;22.32;67.37;99160.70;433738;1267;98463;-41
2022/08/12 06:46:04;;;;;;;8.20;6.70;;;;;;;22.42;66.36;99157.44;433537;1268;108755;-42
2022/08/12 06:56:11;;;;;;;9.40;7.80;;;;;;;22.81;65.27;99148.48;433641;1268;108974;-42
2022/08/12 07:06:24;;;;;;;9.20;5.60;;;;;;;22.37;64.59;99145.70;433556;1267;97888;-41
2022/08/12 07:26:43;;;;;;;6.20;4.10;;;;;;;22.97;63.62;99140.44;433848;1268;108873;-41
2022/08/12 07:36:51;;;;;;;7.30;4.30;;;;;;;23.18;61.88;99139.98;433644;1268;97891;-41
2022/08/12 07:46:58;;;;;;;8.50;4.90;;;;;;;23.31;61.39;99138.95;432508;1269;111098;-41
2022/08/12 08:07:12;;;;;;;7.60;3.50;;;;;;;23.37;59.60;99142.35;433531;1268;108812;-40
2022/08/12 08:17:20;;;;;;;3.60;3.30;;;;;;;23.29;59.09;99141.33;433403;1268;98291;-41
2022/08/12 08:27:27;;;;;;;4.00;3.70;;;;;;;23.68;58.65;99146.01;433701;1267;111208;-42
2022/08/12 08:37:34;;;;;;;10.90;3.90;;;;;;;23.63;58.41;99143.66;433515;1268;108299;-42
2022/08/12 08:57:53;;;;;;;4.40;4.10;;;;;;;23.13;57.77;99144.88;433803;1268;98016;-41
2022/08/12 09:08:02;;;;;;;3.50;3.20;;;;;;;23.68;58.26;99150.89;433639;1268;110167;-40
2022/08/12 09:18:26;;;;;;;3.50;3.20;;;;;;;23.80;56.74;99149.90;433408;1268;107704;-41
2022/08/12 09:28:39;;;;;;;3.80;3.50;;;;;;;23.81;56.17;99157.38;433583;1267;107938;-41
2022/08/12 09:38:48;;;;;;;4.80;3.20;;;;;;;23.82;55.21;99158.21;433520;1268;98437;-42
2022/08/12 09:49:05;;;;;;;;;;;;;;;24.22;54.38;99154.67;433273;1268;110701;-41
2022/08/12 09:59:22;;;;;;;3.70;3.20;;;;;;;23.98;54.02;99156.24;433518;1270;108786;-42
2022/08/12 10:09:50;;;;;;;3.60;3.20;;;;;;;24.17;54.35;99146.17;432144;1269;1639858;-42
2022/08/12 10:20:02;;;;;;;3.80;3.50;;;;;;;23.72;53.84;99142.67;433165;1269;110789;-41
2022/08/12 10:30:15;;;;;;;4.30;4.00;;;;;;;23.45;54.25;99127.51;432510;1267;108722;-41
2022/08/12 11:01:30;;;;;;;4.00;3.70;;;;;;;24.22;53.29;99097.17;433581;1269;110717;-41
2022/08/12 11:11:58;;;;;;;5.70;3.90;;;;;;;24.69;52.64;99085.73;433166;1270;107844;-42
2022/08/12 11:22:25;;;;;;;4.40;3.30;;;;;;;25.03;50.89;99071.70;432878;1269;97873;-41
2022/08/12 11:32:34;;;;;;;3.60;3.30;;;;;;;24.87;51.34;99083.06;433350;1269;111263;-41
2022/08/12 11:42:43;;;;;;;3.30;3.10;;;;;;;25.09;50.36;99074.13;433382;1269;108055;-41
2022/08/12 11:52:53;;;;;;;6.10;2.80;;;;;;;25.26;50.03;99076.20;433229;1270;106865;-41
2022/08/12 12:03:03;;;;;;;3.10;2.90;;;;;;;25.33;49.58;99073.29;433372;1270;97986;-41
2022/08/12 12:13:11;;;;;;;4.40;3.00;;;;;;;25.72;49.59;99069.02;433590;1270;111224;-42
2022/08/12 12:23:38;;;;;;;3.60;2.40;;;;;;;26.40;48.12;99059.13;433245;1270;108292;-41
2022/08/12 12:33:53;;;;;;;2.90;2.20;;;;;;;26.60;46.57;99049.66;433254;1270;109019;-42
2022/08/12 12:44:02;;;;;;;3.10;2.60;;;;;;;26.53;45.66;99039.39;433202;1269;98177;-40
2022/08/12 12:54:11;;;;;;;4.00;3.20;;;;;;;26.64;45.16;99035.09;433560;1269;111291;-40
2022/08/12 13:04:23;;;;;;;3.50;3.20;;;;;;;26.48;45.41;99030.62;433048;1270;108745;-40
2022/08/12 13:24:41;;;;;;;5.30;3.20;;;;;;;26.06;45.45;99015.06;433540;1270;97802;-40
2022/08/12 13:44:57;;;;;;;4.70;2.90;;;;;;;26.42;45.11;99000.30;433633;1270;109498;-40
2022/08/12 13:55:08;;;;;;;3.70;3.20;;;;;;;25.65;45.78;98996.86;432987;1269;97459;-40
2022/08/12 14:05:20;;;;;;;3.50;3.00;;;;;;;25.61;46.04;98989.95;432717;1269;97987;-40
2022/08/12 14:15:47;;;;;;;4.10;2.90;;;;;;;25.37;45.77;98993.29;433153;1270;111207;-40
2022/08/12 14:25:58;;;;;;;3.20;2.80;;;;;;;25.64;46.23;98982.34;433570;1269;108982;-41
2022/08/12 14:36:08;;;;;;;3.00;2.80;;;;;;;25.53;45.74;98979.76;433023;1269;97527;-40
2022/08/12 14:46:20;;;;;;;2.80;2.30;;;;;;;25.18;45.77;98974.73;433301;1269;111150;-40
2022/08/12 14:56:28;;;;;;;3.40;3.20;;;;;;;25.26;45.04;98969.09;433680;1270;109035;-40
2022/08/12 15:06:56;;;;;;;5.00;3.40;;;;;;;25.38;45.16;98966.42;433200;1269;96602;-40
2022/08/12 15:17:07;;;;;;;4.30;2.90;;;;;;;25.28;45.23;98964.41;433213;1270;111050;-40
2022/08/12 15:27:15;;;;;;;4.20;3.40;;;;;;;25.25;45.21;98955.59;432802;1270;108306;-41
2022/08/12 15:37:37;;;;;;;5.00;4.60;;;;;;;25.22;45.25;98951.52;433224;1270;97551;-40
2022/08/12 15:48:07;;;;;;;5.40;4.90;;;;;;;25.20;45.36;98940.91;433280;1270;97942;-40
2022/08/12 15:58:26;;;;;;;6.80;5.60;;;;;;;25.14;45.86;98935.58;433198;1270;110610;-40
2022/08/12 16:08:40;;;;;;;7.30;6.10;;;;;;;24.99;46.82;98943.58;432609;1269;108776;-38
2022/08/12 16:28:54;;;;;;;7.60;6.90;;;;;;;24.67;48.16;98942.24;433248;1270;98186;-40
2022/08/12 16:39:02;;;;;;;6.60;6.00;;;;;;;24.50;49.35;98944.70;433174;1270;110072;-41
2022/08/12 16:49:10;;;;;;;10.20;7.00;;;;;;;24.14;50.79;98945.20;432791;1270;108852;-40
2022/08/12 16:59:21;;;;;;;6.00;5.50;;;;;;;23.66;52.75;98942.52;433268;1269;97497;-40
2022/08/12 17:19:46;;;;;;;8.50;6.80;;;;;;;23.05;55.39;98933.64;433062;1270;110990;-42
2022/08/12 17:30:13;;;;;;;8.40;7.00;;;;;;;22.90;55.81;98927.70;433254;1270;108923;-42
2022/08/12 17:40:25;;;;;;;10.60;5.70;;;;;;;22.79;56.20;98916.34;432919;1269;97890;-41
2022/08/12 17:50:45;;;;;;;6.50;5.90;;;;;;;22.57;56.74;98910.60;432962;1270;110814;-42
2022/08/12 18:00:56;;;;;;;8.20;7.30;;;;;;;22.30;56.88;98914.85;432955;1270;109466;-42
2022/08/12 18:21:50;;;;;;;10.60;7.60;;;;;;;21.65;58.19;98921.98;432962;1270;97475;-41
2022/08/12 18:32:08;;;;;;;9.20;8.30;;;;;;;21.47;58.86;98920.56;432425;1270;108864;-41
2022/08/12 18:42:35;;;;;;;8.60;7.70;;;;;;;21.31;59.27;98919.72;432403;1270;97960;-40
2022/08/12 18:52:43;;;;;;;7.40;6.80;;;;;;;21.26;59.54;98923.89;432476;1271;96660;-41
2022/08/12 19:02:54;;;;;;;12.70;7.70;;;;;;;21.24;59.95;98920.52;432549;1270;108907;-42
2022/08/12 19:23:30;;;;;;;11.70;9.60;;;;;;;20.96;60.81;98921.40;432860;1270;97881;-41
2022/08/12 19:33:41;;;;;;;10.90;8.80;;;;;;;20.77;61.35;98922.09;432812;1270;111098;-41
2022/08/12 19:44:09;;;;;;;12.10;10.10;;;;;;;20.64;61.97;98921.14;432760;1270;108856;-41
2022/08/12 19:54:26;;;;;;;12.30;10.00;;;;;;;20.60;62.33;98915.86;432990;1270;98176;-41
2022/08/12 20:04:37;;;;;;;12.40;10.80;;;;;;;20.43;62.76;98919.11;433147;1270;108598;-39
2022/08/12 20:14:46;;;;;;;17.60;11.70;;;;;;;20.28;63.37;98922.05;433078;1270;97904;-39
2022/08/12 20:24:54;;;;;;;18.30;14.50;;;;;;;20.13;63.83;98928.94;433340;1269;97921;-40
2022/08/12 20:35:03;;;;;;;18.20;12.00;;;;;;;19.81;64.11;98916.91;432410;1269;110836;-40
2022/08/12 20:45:17;;;;;;;16.30;12.10;;;;;;;19.65;64.63;98910.02;433069;1269;109642;-39
2022/08/12 20:55:23;;;;;;;19.90;11.30;;;;;;;19.53;65.02;98921.23;432968;1270;97522;-41
2022/08/12 21:16:19;;;;;;;15.60;13.10;;;;;;;19.10;66.00;98934.16;432770;1267;96924;-41
2022/08/12 21:26:42;;;;;;;13.60;12.20;;;;;;;18.90;66.55;98932.61;433290;1270;111195;-40
2022/08/12 21:37:04;;;;;;;16.40;12.60;;;;;;;18.71;66.79;98931.31;433173;1270;108710;-40
2022/08/12 21:47:31;;;;;;;14.10;12.20;;;;;;;18.55;67.46;98915.09;433170;1270;97768;-40
2022/08/12 21:57:40;;;;;;;19.20;12.30;;;;;;;18.31;67.54;98918.22;433278;1269;108787;-39
2022/08/12 22:07:58;;;;;;;21.20;12.10;;;;;;;18.14;68.26;98919.55;432479;1270;1282967;-41
2022/08/12 22:18:06;;;;;;;15.70;12.40;;;;;;;18.10;68.70;98927.91;432932;1270;111100;-39
2022/08/12 22:48:52;;;;;;;13.20;11.10;;;;;;;17.86;69.42;98921.75;433126;1270;107447;-42
2022/08/12 22:59:00;;;;;;;12.20;10.50;;;;;;;17.67;69.64;98915.64;433134;1269;97903;-41
2022/08/12 23:09:08;;;;;;;11.80;10.50;;;;;;;17.63;70.04;98906.27;433198;1270;111155;-41
2022/08/12 23:29:29;;;;;;;12.20;10.90;;;;;;;17.64;70.78;98884.95;432968;1270;97480;-41
2022/08/12 23:39:49;;;;;;;12.60;10.20;;;;;;;17.64;70.95;98867.73;433414;1270;109503;-41
2022/08/12 23:50:15;;;;;;;14.10;12.30;;;;;;;17.67;71.15;98856.02;433608;1270;96657;-39
